Melfa, Virginia
Current Conditions -  °F | °C
As of 3:55 PM on Thursday 27 Nov 2014 (Local Time) from KMFV Reporting Station
Overcast Overcast  
Wind Chill: 36°   Ceiling: 1900
Heat Index: 41°   Visibility: 10mi
Dew Point: 34°   Wind: 8mph
Humidity: 76%   Direction: 340°NNW
Pressure: 30.04"   Gusts: 21mph
Location:  37.65°N, 75.74°W
Report Text: KMFV 272055Z AUTO 34007G18KT 310V010 10SM BKN019 BKN025 OVC032 05/01 A3004 RMK AO2
Loading
Personal Weather Stations






























Interactive Weather Map New forecast layout! Learn more

10-Day Weather Forecast

Advertisements
Track Severe Weather on mobile